SVMW weather

Los Malabares Airport
Tachira, Venezuela

Public forecast

Using degrees Celsius for public forecast. Weather courtesy of forecast.io.

Closest aviation weather report (METAR) to Los Malabares Airport

Report is more than 6 hours old.

Closest report is San Antonio Del Tachira Airport, 13.5 nm (25.0 km) N. Retrieved 2019/05/15 21:00 UTC (5 months ago):

SVSA 152100Z /////KT 9999 BKN020 33/// Q1008

Closest aviation forecast (TAF) to Los Malabares Airport

Closest forecast is San Antonio Del Tachira Airport, 13.5 nm (25.0 km) N. Retrieved 2019/10/19 06:03 UTC (19 minutes ago):

TAF TAF SVSA 190400Z 1906/2006 00000KT 9999 SCT020 TX33/19Z TN21/09Z TEMPO 1906/1910 7000 OVC017